Time,TemperatureF,DewpointF,PressureIn,WindDirection,WindDirectionDegrees,WindSpeedMPH,WindSpeedGustMPH,Humidity,HourlyPrecipIn,Conditions,Clouds,dailyrainin,SoftwareType,DateUTC
2013-11-10 00:01:00,76.4,72.6,30.07,NNE,20,3.8,8.1,88,0.01,RA,,0.00,WeatherDisplay:10.37,2013-11-10 05:01:00,
2013-11-10 00:06:00,76.6,72.8,30.07,NE,56,3.9,4.6,88,0.01,RA,,0.00,WeatherDisplay:10.37,2013-11-10 05:06:00,
2013-11-10 00:11:00,76.6,72.8,30.07,NE,56,7.9,11.5,88,0.01,CLR,,0.00,WeatherDisplay:10.37,2013-11-10 05:11:00,
2013-11-10 00:16:00,76.7,72.9,30.07,NE,44,1.6,8.1,88,0.01,CLR,,0.00,WeatherDisplay:10.37,2013-11-10 05:16:00,
2013-11-10 00:21:00,76.7,72.9,30.07,NE,35,4.4,9.0,88,0.01,CLR,,0.00,WeatherDisplay:10.37,2013-11-10 05:21:00,
2013-11-10 00:26:00,76.7,72.9,30.06,NE,36,4.4,6.9,88,0.01,CLR,,0.00,WeatherDisplay:10.37,2013-11-10 05:26:00,
2013-11-10 00:32:00,76.7,72.9,30.07,ENE,63,4.9,6.9,88,0.01,CLR,,0.00,WeatherDisplay:10.37,2013-11-10 05:32:00,
2013-11-10 00:37:00,76.8,73.0,30.06,NE,55,4.3,5.8,88,0.01,CLR,,0.00,WeatherDisplay:10.37,2013-11-10 05:37:00,
2013-11-10 00:42:00,76.8,73.0,30.06,NE,34,4.3,4.3,88,0.00,CLR,,0.00,WeatherDisplay:10.37,2013-11-10 05:42:00,
2013-11-10 00:47:00,76.9,72.7,30.06,NE,34,6.1,11.5,87,0.00,CLR,,0.00,WeatherDisplay:10.37,2013-11-10 05:47:00,
2013-11-10 00:52:00,77.0,72.8,30.06,NE,35,5.3,11.0,87,0.00,CLR,,0.00,WeatherDisplay:10.37,2013-11-10 05:52:00,
2013-11-10 00:57:00,77.0,72.8,30.06,NE,38,2.6,6.9,87,0.00,CLR,,0.00,WeatherDisplay:10.37,2013-11-10 05:57:00,
2013-11-10 01:02:00,77.0,72.8,30.06,East,87,5.7,11.5,87,0.00,CLR,,0.00,WeatherDisplay:10.37,2013-11-10 06:02:00,
2013-11-10 01:07:00,77.1,72.9,30.06,ENE,67,5.4,11.5,87,0.00,CLR,,0.00,WeatherDisplay:10.37,2013-11-10 06:07:00,
2013-11-10 01:12:00,77.1,72.6,30.06,ENE,57,3.5,7.0,86,0.00,CLR,,0.00,WeatherDisplay:10.37,2013-11-10 06:12:00,
2013-11-10 01:17:00,77.1,72.9,30.06,NE,40,3.4,6.9,87,0.00,CLR,,0.00,WeatherDisplay:10.37,2013-11-10 06:17:00,
2013-11-10 01:22:00,77.1,72.9,30.05,NE,55,2.6,4.6,87,0.00,CLR,,0.00,WeatherDisplay:10.37,2013-11-10 06:22:00,
2013-11-10 01:27:00,77.1,72.9,30.05,NE,53,2.9,4.6,87,0.00,CLR,,0.00,WeatherDisplay:10.37,2013-11-10 06:27:00,
2013-11-10 01:32:00,77.0,72.8,30.05,ENE,74,4.7,8.1,87,0.00,CLR,,0.00,WeatherDisplay:10.37,2013-11-10 06:32:00,
2013-11-10 01:37:00,77.0,72.8,30.05,NNE,27,4.8,6.9,87,0.00,CLR,,0.00,WeatherDisplay:10.37,2013-11-10 06:37:00,
2013-11-10 01:42:00,77.1,72.6,30.05,East,80,5.1,6.9,86,0.00,CLR,,0.00,WeatherDisplay:10.37,2013-11-10 06:42:00,
2013-11-10 01:47:00,77.2,72.7,30.05,ENE,63,7.4,11.5,86,0.00,CLR,,0.00,WeatherDisplay:10.37,2013-11-10 06:47:00,
2013-11-10 01:52:00,77.3,72.8,30.04,ENE,71,2.1,3.5,86,0.00,CLR,,0.00,WeatherDisplay:10.37,2013-11-10 06:52:00,
2013-11-10 01:57:00,77.2,72.7,30.04,ENE,69,2.7,4.6,86,0.00,CLR,,0.00,WeatherDisplay:10.37,2013-11-10 06:57:00,
2013-11-10 02:02:00,77.0,72.8,30.05,ENE,74,5.8,9.2,87,0.00,CLR,,0.00,WeatherDisplay:10.37,2013-11-10 07:02:00,
2013-11-10 02:07:00,76.8,73.0,30.05,ENE,73,2.0,3.5,88,0.00,CLR,,0.00,WeatherDisplay:10.37,2013-11-10 07:07:00,
2013-11-10 02:12:00,76.4,72.9,30.05,NE,51,4.2,8.1,89,0.00,CLR,,0.00,WeatherDisplay:10.37,2013-11-10 07:12:00,
2013-11-10 02:17:00,76.0,72.9,30.05,East,79,3.1,4.6,90,0.00,CLR,,0.00,WeatherDisplay:10.37,2013-11-10 07:17:00,
2013-11-10 02:22:00,75.9,73.1,30.04,ENE,76,2.8,4.6,91,0.00,CLR,,0.00,WeatherDisplay:10.37,2013-11-10 07:22:00,
2013-11-10 02:27:00,75.8,73.0,30.04,NE,55,2.5,5.8,91,0.00,CLR,,0.00,WeatherDisplay:10.37,2013-11-10 07:27:00,
2013-11-10 02:32:00,75.8,73.0,30.04,East,86,3.2,3.5,91,0.00,CLR,,0.00,WeatherDisplay:10.37,2013-11-10 07:32:00,
2013-11-10 02:37:00,75.9,72.8,30.04,NNE,12,4.3,4.3,90,0.00,CLR,,0.00,WeatherDisplay:10.37,2013-11-10 07:37:00,
2013-11-10 02:42:00,76.0,72.9,30.04,NE,38,3.2,4.6,90,0.00,CLR,,0.00,WeatherDisplay:10.37,2013-11-10 07:42:00,
2013-11-10 02:47:00,76.1,73.0,30.04,NE,34,4.6,4.6,90,0.00,CLR,,0.00,WeatherDisplay:10.37,2013-11-10 07:47:00,
2013-11-10 02:52:00,76.1,72.6,30.04,NNE,22,3.5,9.2,89,0.00,CLR,,0.00,WeatherDisplay:10.37,2013-11-10 07:52:00,
2013-11-10 02:57:00,76.2,72.7,30.04,ENE,59,1.6,3.5,89,0.00,CLR,,0.00,WeatherDisplay:10.37,2013-11-10 07:57:00,
2013-11-10 03:02:00,76.3,72.8,30.04,NE,35,4.6,8.1,89,0.00,CLR,,0.00,WeatherDisplay:10.37,2013-11-10 08:02:00,
2013-11-10 03:07:00,76.4,72.9,30.04,ENE,63,4.4,9.2,89,0.00,CLR,,0.00,WeatherDisplay:10.37,2013-11-10 08:07:00,
2013-11-10 03:12:00,76.5,73.0,30.04,NE,37,3.3,4.6,89,0.00,CLR,,0.00,WeatherDisplay:10.37,2013-11-10 08:12:00,
2013-11-10 03:17:00,76.5,73.0,30.04,NE,49,5.9,9.2,89,0.00,CLR,,0.00,WeatherDisplay:10.37,2013-11-10 08:17:00,
2013-11-10 03:22:00,76.6,72.8,30.04,ENE,77,3.0,9.2,88,0.00,CLR,,0.00,WeatherDisplay:10.37,2013-11-10 08:22:00,
2013-11-10 03:27:00,76.7,72.9,30.04,NE,45,3.1,4.6,88,0.00,CLR,,0.00,WeatherDisplay:10.37,2013-11-10 08:27:00,
2013-11-10 03:32:00,76.7,72.9,30.04,NNE,32,3.3,3.5,88,0.00,CLR,,0.00,WeatherDisplay:10.37,2013-11-10 08:32:00,
2013-11-10 03:37:00,76.7,72.9,30.04,NE,38,2.9,10.4,88,0.00,CLR,,0.00,WeatherDisplay:10.37,2013-11-10 08:37:00,
2013-11-10 03:42:00,76.8,73.0,30.04,NE,38,3.7,9.2,88,0.00,CLR,,0.00,WeatherDisplay:10.37,2013-11-10 08:42:00,
2013-11-10 03:47:00,76.9,73.1,30.03,NE,40,7.5,8.1,88,0.00,CLR,,0.00,WeatherDisplay:10.37,2013-11-10 08:47:00,
2013-11-10 03:52:00,76.9,72.7,30.03,NE,53,5.5,6.9,87,0.00,CLR,,0.00,WeatherDisplay:10.37,2013-11-10 08:52:00,
2013-11-10 03:57:00,77.0,72.8,30.03,NNE,26,5.8,11.5,87,0.00,CLR,,0.00,WeatherDisplay:10.37,2013-11-10 08:57:00,
2013-11-10 04:02:00,77.0,72.8,30.03,NE,42,2.7,5.8,87,0.00,CLR,,0.00,WeatherDisplay:10.37,2013-11-10 09:02:00,
2013-11-10 04:07:00,77.0,72.8,30.04,NNE,29,3.6,10.4,87,0.00,CLR,,0.00,WeatherDisplay:10.37,2013-11-10 09:07:00,
2013-11-10 04:12:00,76.9,72.7,30.04,NE,53,0.9,4.6,87,0.00,CLR,,0.00,WeatherDisplay:10.37,2013-11-10 09:12:00,
2013-11-10 04:17:00,76.9,72.7,30.04,NE,53,4.2,6.9,87,0.00,CLR,,0.00,WeatherDisplay:10.37,2013-11-10 09:17:00,
2013-11-10 04:22:00,76.9,72.7,30.04,NE,40,3.2,8.1,87,0.00,CLR,,0.00,WeatherDisplay:10.37,2013-11-10 09:22:00,
2013-11-10 04:27:00,77.0,72.8,30.04,NE,36,3.2,3.5,87,0.00,CLR,,0.00,WeatherDisplay:10.37,2013-11-10 09:27:00,
2013-11-10 04:32:00,77.1,72.9,30.04,ESE,116,4.3,8.1,87,0.00,CLR,,0.00,WeatherDisplay:10.37,2013-11-10 09:32:00,
2013-11-10 04:37:00,77.0,72.8,30.04,East,92,3.3,3.3,87,0.00,CLR,,0.00,WeatherDisplay:10.37,2013-11-10 09:37:00,
2013-11-10 04:42:00,76.9,72.7,30.04,NNE,29,5.1,6.9,87,0.00,CLR,,0.00,WeatherDisplay:10.37,2013-11-10 09:42:00,
2013-11-10 04:47:00,76.9,72.7,30.04,NE,35,4.1,10.4,87,0.00,CLR,,0.00,WeatherDisplay:10.37,2013-11-10 09:47:00,
2013-11-10 04:52:00,77.0,72.8,30.04,ENE,78,2.8,8.1,87,0.00,CLR,,0.00,WeatherDisplay:10.37,2013-11-10 09:52:00,
2013-11-10 04:57:00,77.0,72.8,30.04,ENE,63,2.8,6.9,87,0.00,CLR,,0.00,WeatherDisplay:10.37,2013-11-10 09:57:00,
2013-11-10 05:02:00,76.9,72.7,30.04,North,5,2.7,4.0,87,0.00,CLR,,0.00,WeatherDisplay:10.37,2013-11-10 10:02:00,
2013-11-10 05:07:00,76.8,72.6,30.05,NE,43,2.9,5.8,87,0.00,CLR,,0.00,WeatherDisplay:10.37,2013-11-10 10:07:00,
2013-11-10 05:12:00,76.8,72.6,30.05,NNE,17,5.7,11.5,87,0.00,CLR,,0.00,WeatherDisplay:10.37,2013-11-10 10:12:00,
2013-11-10 05:17:00,76.9,72.7,30.05,NNE,17,6.2,10.4,87,0.00,CLR,,0.00,WeatherDisplay:10.37,2013-11-10 10:17:00,
2013-11-10 05:22:00,77.0,72.5,30.05,NE,54,3.9,9.2,86,0.00,CLR,,0.00,WeatherDisplay:10.37,2013-11-10 10:22:00,
2013-11-10 05:27:00,77.1,72.6,30.05,NE,52,5.8,8.1,86,0.00,CLR,,0.00,WeatherDisplay:10.37,2013-11-10 10:27:00,
2013-11-10 05:32:00,77.1,72.6,30.05,ENE,67,2.5,5.8,86,0.00,CLR,,0.00,WeatherDisplay:10.37,2013-11-10 10:32:00,
2013-11-10 05:36:00,77.1,72.2,30.05,ENE,76,6.9,9.2,85,0.00,CLR,,0.00,WeatherDisplay:10.37,2013-11-10 10:36:00,
2013-11-10 05:41:00,77.2,72.3,30.06,ENE,69,5.1,8.1,85,0.00,CLR,,0.00,WeatherDisplay:10.37,2013-11-10 10:41:00,
2013-11-10 05:46:00,77.2,72.3,30.06,NE,34,5.7,8.1,85,0.00,CLR,,0.00,WeatherDisplay:10.37,2013-11-10 10:46:00,
2013-11-10 05:51:00,77.2,72.3,30.06,NE,48,3.0,4.6,85,0.00,CLR,,0.00,WeatherDisplay:10.37,2013-11-10 10:51:00,
2013-11-10 05:56:00,77.1,72.2,30.06,ENE,65,3.5,5.0,85,0.00,CLR,,0.00,WeatherDisplay:10.37,2013-11-10 10:56:00,
2013-11-10 06:01:00,77.0,72.1,30.06,ENE,70,2.6,6.9,85,0.00,CLR,,0.00,WeatherDisplay:10.37,2013-11-10 11:01:00,
2013-11-10 06:06:00,77.0,71.8,30.06,ENE,62,5.4,5.8,84,0.00,CLR,,0.00,WeatherDisplay:10.37,2013-11-10 11:06:00,
2013-11-10 06:11:00,77.0,71.8,30.06,ENE,76,4.2,5.8,84,0.00,CLR,,0.00,WeatherDisplay:10.37,2013-11-10 11:11:00,
2013-11-10 06:16:00,77.0,71.4,30.06,NNE,26,5.8,5.8,83,0.00,CLR,,0.00,WeatherDisplay:10.37,2013-11-10 11:16:00,
2013-11-10 06:21:00,77.0,71.1,30.07,NE,49,8.6,11.5,82,0.00,CLR,,0.00,WeatherDisplay:10.37,2013-11-10 11:21:00,
2013-11-10 06:26:00,77.1,71.2,30.07,ENE,71,2.5,14.0,82,0.00,CLR,,0.00,WeatherDisplay:10.37,2013-11-10 11:26:00,
2013-11-10 06:31:00,77.1,70.8,30.07,NE,35,5.1,9.2,81,0.00,CLR,,0.00,WeatherDisplay:10.37,2013-11-10 11:31:00,
2013-11-10 06:36:00,77.2,70.9,30.07,ENE,72,2.1,8.1,81,0.00,CLR,,0.00,WeatherDisplay:10.37,2013-11-10 11:36:00,
2013-11-10 06:41:00,77.1,71.2,30.07,ENE,70,3.9,5.8,82,0.00,CLR,,0.00,WeatherDisplay:10.37,2013-11-10 11:41:00,
2013-11-10 06:46:00,77.0,70.7,30.07,ENE,58,5.7,8.1,81,0.00,CLR,,0.00,WeatherDisplay:10.37,2013-11-10 11:46:00,
2013-11-10 06:51:00,77.1,70.8,30.08,NE,52,6.6,6.6,81,0.00,CLR,,0.00,WeatherDisplay:10.37,2013-11-10 11:51:00,
2013-11-10 06:56:00,77.1,70.5,30.08,ENE,71,4.8,4.8,80,0.00,CLR,,0.00,WeatherDisplay:10.37,2013-11-10 11:56:00,
2013-11-10 07:01:00,77.1,70.5,30.08,ESE,109,4.9,6.9,80,0.00,CLR,,0.00,WeatherDisplay:10.37,2013-11-10 12:01:00,
2013-11-10 07:06:00,77.1,70.5,30.08,ENE,63,3.2,6.9,80,0.00,CLR,,0.00,WeatherDisplay:10.37,2013-11-10 12:06:00,
2013-11-10 07:11:00,77.1,70.8,30.08,ENE,62,3.3,5.8,81,0.00,CLR,,0.00,WeatherDisplay:10.37,2013-11-10 12:11:00,
2013-11-10 07:16:00,77.1,70.8,30.08,ENE,65,2.4,3.5,81,0.00,CLR,,0.00,WeatherDisplay:10.37,2013-11-10 12:16:00,
2013-11-10 07:21:00,77.1,70.8,30.08,NNE,13,4.4,4.6,81,0.00,CLR,,0.00,WeatherDisplay:10.37,2013-11-10 12:21:00,
2013-11-10 07:26:00,77.2,70.9,30.08,NE,56,7.9,11.5,81,0.00,CLR,,0.00,WeatherDisplay:10.37,2013-11-10 12:26:00,
2013-11-10 07:31:00,77.3,71.0,30.08,East,86,3.9,4.6,81,0.00,CLR,,0.00,WeatherDisplay:10.37,2013-11-10 12:31:00,
2013-11-10 07:36:00,77.3,70.6,30.08,East,79,6.0,9.2,80,0.00,CLR,,0.00,WeatherDisplay:10.37,2013-11-10 12:36:00,
2013-11-10 07:41:00,77.4,70.7,30.09,NE,49,3.9,5.8,80,0.00,CLR,,0.00,WeatherDisplay:10.37,2013-11-10 12:41:00,
2013-11-10 07:46:00,77.5,71.2,30.09,East,82,2.7,5.8,81,0.00,CLR,,0.00,WeatherDisplay:10.37,2013-11-10 12:46:00,
2013-11-10 07:51:00,77.6,70.9,30.09,SE,140,4.4,11.5,80,0.00,CLR,,0.00,WeatherDisplay:10.37,2013-11-10 12:51:00,
2013-11-10 07:56:00,77.7,71.0,30.09,NNE,32,5.0,8.1,80,0.00,CLR,,0.00,WeatherDisplay:10.37,2013-11-10 12:56:00,
2013-11-10 08:01:00,77.8,71.1,30.09,NE,55,1.5,4.6,80,0.00,CLR,,0.00,WeatherDisplay:10.37,2013-11-10 13:01:00,
2013-11-10 08:06:00,77.9,71.6,30.09,East,82,5.8,5.8,81,0.00,CLR,,0.00,WeatherDisplay:10.37,2013-11-10 13:06:00,
2013-11-10 08:11:00,78.0,71.3,30.09,NE,45,6.8,10.4,80,0.00,CLR,,0.00,WeatherDisplay:10.37,2013-11-10 13:11:00,
2013-11-10 08:16:00,78.2,71.9,30.09,East,85,3.7,8.1,81,0.00,CLR,,0.00,WeatherDisplay:10.37,2013-11-10 13:16:00,
2013-11-10 08:22:00,78.3,71.6,30.09,NE,44,9.2,11.5,80,0.00,CLR,,0.00,WeatherDisplay:10.37,2013-11-10 13:22:00,
2013-11-10 08:27:00,78.5,71.8,30.09,ENE,71,5.1,11.5,80,0.00,CLR,,0.00,WeatherDisplay:10.37,2013-11-10 13:27:00,
2013-11-10 08:32:00,79.1,72.0,30.09,ENE,74,9.2,12.7,79,0.00,CLR,,0.00,WeatherDisplay:10.37,2013-11-10 13:32:00,
2013-11-10 08:37:00,79.6,72.5,30.09,ENE,58,5.3,5.3,79,0.00,CLR,,0.00,WeatherDisplay:10.37,2013-11-10 13:37:00,
2013-11-10 08:42:00,79.8,72.3,30.09,ENE,71,4.9,9.2,78,0.00,CLR,,0.00,WeatherDisplay:10.37,2013-11-10 13:42:00,
2013-11-10 08:47:00,79.5,72.0,30.10,ESE,105,5.6,13.8,78,0.00,CLR,,0.00,WeatherDisplay:10.37,2013-11-10 13:47:00,
2013-11-10 08:52:00,79.4,72.3,30.10,NNE,24,9.0,9.2,79,0.00,CLR,,0.00,WeatherDisplay:10.37,2013-11-10 13:52:00,
2013-11-10 08:57:00,79.8,72.7,30.10,ENE,61,6.3,11.5,79,0.00,CLR,,0.00,WeatherDisplay:10.37,2013-11-10 13:57:00,
2013-11-10 09:02:00,79.9,72.4,30.10,ENE,58,8.6,12.7,78,0.00,CLR,,0.00,WeatherDisplay:10.37,2013-11-10 14:02:00,
2013-11-10 09:07:00,79.8,72.3,30.10,NNE,19,6.7,13.8,78,0.00,CLR,,0.00,WeatherDisplay:10.37,2013-11-10 14:07:00,
2013-11-10 09:12:00,79.4,71.9,30.10,ENE,62,7.1,11.5,78,0.00,CLR,,0.00,WeatherDisplay:10.37,2013-11-10 14:12:00,
2013-11-10 09:17:00,79.4,71.9,30.10,NNE,30,6.0,6.9,78,0.00,CLR,,0.00,WeatherDisplay:10.37,2013-11-10 14:17:00,
2013-11-10 09:22:00,79.4,71.9,30.10,ENE,71,7.7,11.5,78,0.00,CLR,,0.00,WeatherDisplay:10.37,2013-11-10 14:22:00,
2013-11-10 09:27:00,79.6,72.1,30.10,NE,44,8.7,12.7,78,0.00,CLR,,0.00,WeatherDisplay:10.37,2013-11-10 14:27:00,
2013-11-10 09:32:00,79.6,72.1,30.10,NE,38,6.9,8.1,78,0.00,CLR,,0.00,WeatherDisplay:10.37,2013-11-10 14:32:00,
2013-11-10 09:37:00,79.7,71.8,30.10,East,86,8.0,9.2,77,0.00,CLR,,0.00,WeatherDisplay:10.37,2013-11-10 14:37:00,
2013-11-10 09:42:00,79.5,72.4,30.10,ENE,69,2.7,8.1,79,0.00,CLR,,0.00,WeatherDisplay:10.37,2013-11-10 14:42:00,
2013-11-10 09:47:00,79.6,72.1,30.11,NNE,29,6.1,11.5,78,0.00,CLR,,0.00,WeatherDisplay:10.37,2013-11-10 14:47:00,
2013-11-10 09:52:00,79.8,72.7,30.11,NE,51,4.9,5.8,79,0.00,CLR,,0.00,WeatherDisplay:10.37,2013-11-10 14:52:00,
2013-11-10 09:57:00,79.8,72.3,30.10,East,97,3.9,6.9,78,0.00,CLR,,0.00,WeatherDisplay:10.37,2013-11-10 14:57:00,
2013-11-10 10:02:00,79.8,72.3,30.10,ENE,60,9.1,13.8,78,0.00,CLR,,0.00,WeatherDisplay:10.37,2013-11-10 15:02:00,
2013-11-10 10:07:00,79.9,72.4,30.10,ENE,77,4.1,6.9,78,0.00,CLR,,0.00,WeatherDisplay:10.37,2013-11-10 15:07:00,
2013-11-10 10:12:00,80.2,72.3,30.10,North,5,4.3,11.5,77,0.00,CLR,,0.00,WeatherDisplay:10.37,2013-11-10 15:12:00,
2013-11-10 10:17:00,80.6,72.3,30.10,NE,34,7.0,10.4,76,0.00,CLR,,0.00,WeatherDisplay:10.37,2013-11-10 15:17:00,
2013-11-10 10:22:00,81.0,72.3,30.10,NE,54,8.1,11.5,75,0.00,CLR,,0.00,WeatherDisplay:10.37,2013-11-10 15:22:00,
2013-11-10 10:27:00,81.1,72.4,30.09,NE,55,6.7,11.5,75,0.00,CLR,,0.00,WeatherDisplay:10.37,2013-11-10 15:27:00,
2013-11-10 10:32:00,81.6,72.5,30.10,ENE,65,3.5,11.5,74,0.00,CLR,,0.00,WeatherDisplay:10.37,2013-11-10 15:32:00,
2013-11-10 10:37:00,81.7,72.2,30.10,NNE,22,8.8,12.7,73,0.00,CLR,,0.00,WeatherDisplay:10.37,2013-11-10 15:37:00,
2013-11-10 10:42:00,81.2,72.1,30.09,ESE,109,7.8,11.5,74,0.00,CLR,,0.00,WeatherDisplay:10.37,2013-11-10 15:42:00,
2013-11-10 10:47:00,81.1,72.0,30.09,NE,42,8.6,11.5,74,0.00,CLR,,0.00,WeatherDisplay:10.37,2013-11-10 15:47:00,
2013-11-10 10:52:00,81.2,72.1,30.09,NE,44,4.7,8.1,74,0.00,CLR,,0.00,WeatherDisplay:10.37,2013-11-10 15:52:00,
2013-11-10 10:57:00,81.1,71.2,30.09,ENE,61,7.4,11.5,72,0.00,CLR,,0.00,WeatherDisplay:10.37,2013-11-10 15:57:00,
2013-11-10 11:02:00,80.9,71.0,30.09,East,82,8.6,11.5,72,0.00,CLR,,0.00,WeatherDisplay:10.37,2013-11-10 16:02:00,
2013-11-10 11:07:00,80.7,71.2,30.09,ENE,59,6.7,9.2,73,0.00,CLR,,0.00,WeatherDisplay:10.37,2013-11-10 16:07:00,
2013-11-10 11:12:00,80.8,71.7,30.09,East,91,5.0,6.9,74,0.00,CLR,,0.00,WeatherDisplay:10.37,2013-11-10 16:12:00,
2013-11-10 11:17:00,81.0,71.9,30.08,ENE,58,5.6,8.1,74,0.00,CLR,,0.00,WeatherDisplay:10.37,2013-11-10 16:17:00,
2013-11-10 11:22:00,81.0,71.5,30.08,NE,49,4.2,8.1,73,0.00,CLR,,0.00,WeatherDisplay:10.37,2013-11-10 16:22:00,
2013-11-10 11:27:00,81.0,71.1,30.08,NE,55,7.2,9.2,72,0.00,CLR,,0.00,WeatherDisplay:10.37,2013-11-10 16:27:00,
2013-11-10 11:32:00,81.0,69.9,30.08,NNE,31,5.4,10.4,69,0.00,CLR,,0.00,WeatherDisplay:10.37,2013-11-10 16:32:00,
2013-11-10 11:37:00,81.0,69.4,30.08,ENE,59,2.8,8.1,68,0.00,CLR,,0.00,WeatherDisplay:10.37,2013-11-10 16:37:00,
2013-11-10 11:42:00,80.9,69.3,30.08,NE,53,5.0,10.4,68,0.00,CLR,,0.00,WeatherDisplay:10.37,2013-11-10 16:42:00,
2013-11-10 11:47:00,81.0,70.3,30.08,North,11,4.6,8.1,70,0.00,CLR,,0.00,WeatherDisplay:10.37,2013-11-10 16:47:00,
2013-11-10 11:52:00,81.1,70.8,30.08,ENE,63,5.2,8.1,71,0.00,CLR,,0.00,WeatherDisplay:10.37,2013-11-10 16:52:00,
2013-11-10 11:57:00,81.2,70.5,30.08,NE,51,4.3,6.9,70,0.00,CLR,,0.00,WeatherDisplay:10.37,2013-11-10 16:57:00,
2013-11-10 12:02:00,81.2,70.1,30.08,East,82,6.9,9.2,69,0.00,CLR,,0.00,WeatherDisplay:10.37,2013-11-10 17:02:00,
2013-11-10 12:07:00,81.4,70.7,30.08,NE,38,5.8,8.1,70,0.00,CLR,,0.00,WeatherDisplay:10.37,2013-11-10 17:07:00,
2013-11-10 12:12:00,81.6,70.9,30.08,East,96,5.1,9.2,70,0.00,CLR,,0.00,WeatherDisplay:10.37,2013-11-10 17:12:00,
2013-11-10 12:17:00,82.1,71.8,30.07,East,83,4.4,8.1,71,0.00,CLR,,0.00,WeatherDisplay:10.37,2013-11-10 17:17:00,
2013-11-10 12:22:00,82.4,71.6,30.07,ENE,75,6.3,9.2,70,0.00,CLR,,0.00,WeatherDisplay:10.37,2013-11-10 17:22:00,
2013-11-10 12:27:00,82.7,71.1,30.07,NE,54,7.1,10.4,68,0.00,CLR,,0.00,WeatherDisplay:10.37,2013-11-10 17:27:00,
2013-11-10 12:32:00,82.4,71.2,30.07,NE,50,4.9,9.2,69,0.00,CLR,,0.00,WeatherDisplay:10.37,2013-11-10 17:32:00,
2013-11-10 12:37:00,82.3,71.1,30.06,ENE,57,4.2,8.1,69,0.00,CLR,,0.00,WeatherDisplay:10.37,2013-11-10 17:37:00,
2013-11-10 12:42:00,82.0,71.2,30.06,NE,56,4.4,6.9,70,0.00,CLR,,0.00,WeatherDisplay:10.37,2013-11-10 17:42:00,
2013-11-10 12:47:00,81.8,71.5,30.06,NE,55,3.9,6.9,71,0.00,CLR,,0.00,WeatherDisplay:10.37,2013-11-10 17:47:00,
2013-11-10 12:52:00,81.7,71.0,30.06,SSE,151,2.8,8.1,70,0.00,CLR,,0.00,WeatherDisplay:10.37,2013-11-10 17:52:00,
2013-11-10 12:57:00,81.7,71.0,30.06,NE,44,2.6,8.1,70,0.00,CLR,,0.00,WeatherDisplay:10.37,2013-11-10 17:57:00,
2013-11-10 13:02:00,81.6,71.3,30.05,ENE,71,2.9,5.8,71,0.00,CLR,,0.00,WeatherDisplay:10.37,2013-11-10 18:02:00,
2013-11-10 13:07:00,81.6,71.3,30.05,East,96,5.6,8.1,71,0.00,CLR,,0.00,WeatherDisplay:10.37,2013-11-10 18:07:00,
2013-11-10 13:12:00,81.6,71.7,30.05,NE,44,4.5,5.8,72,0.00,CLR,,0.00,WeatherDisplay:10.37,2013-11-10 18:12:00,
2013-11-10 13:17:00,81.6,70.9,30.05,North,5,3.8,4.6,70,0.00,CLR,,0.00,WeatherDisplay:10.37,2013-11-10 18:17:00,
2013-11-10 13:22:00,81.5,70.8,30.05,ENE,69,4.1,8.1,70,0.00,CLR,,0.00,WeatherDisplay:10.37,2013-11-10 18:22:00,
2013-11-10 13:27:00,81.6,70.4,30.05,NNE,28,5.2,10.4,69,0.00,CLR,,0.00,WeatherDisplay:10.37,2013-11-10 18:27:00,
2013-11-10 13:32:00,81.7,69.7,30.05,ENE,61,9.6,11.5,67,0.00,CLR,,0.00,WeatherDisplay:10.37,2013-11-10 18:32:00,
2013-11-10 13:37:00,81.7,70.1,30.05,ENE,59,5.0,9.0,68,0.00,CLR,,0.00,WeatherDisplay:10.37,2013-11-10 18:37:00,
2013-11-10 13:42:00,81.6,70.4,30.05,NNE,32,3.9,4.6,69,0.00,CLR,,0.00,WeatherDisplay:10.37,2013-11-10 18:42:00,
2013-11-10 13:47:00,81.7,70.5,30.05,NE,52,6.9,10.4,69,0.00,CLR,,0.00,WeatherDisplay:10.37,2013-11-10 18:47:00,
2013-11-10 13:52:00,81.6,70.0,30.05,ENE,57,5.0,8.1,68,0.00,CLR,,0.00,WeatherDisplay:10.37,2013-11-10 18:52:00,
2013-11-10 13:57:00,81.6,69.6,30.05,North,350,5.7,8.1,67,0.00,CLR,,0.00,WeatherDisplay:10.37,2013-11-10 18:57:00,
2013-11-10 14:02:00,81.5,70.3,30.04,NNE,30,3.5,10.4,69,0.00,CLR,,0.00,WeatherDisplay:10.37,2013-11-10 19:02:00,
2013-11-10 14:08:00,81.6,70.4,30.04,NE,40,6.0,6.0,69,0.00,CLR,,0.00,WeatherDisplay:10.37,2013-11-10 19:08:00,
2013-11-10 14:13:00,81.8,70.2,30.04,NNE,30,5.1,11.5,68,0.00,CLR,,0.00,WeatherDisplay:10.37,2013-11-10 19:13:00,
2013-11-10 14:18:00,82.2,70.6,30.03,NE,49,4.5,9.2,68,0.00,CLR,,0.00,WeatherDisplay:10.37,2013-11-10 19:18:00,
2013-11-10 14:23:00,82.4,70.8,30.03,NNE,23,5.6,11.5,68,0.00,CLR,,0.00,WeatherDisplay:10.37,2013-11-10 19:23:00,
2013-11-10 14:28:00,82.3,71.1,30.03,ENE,64,7.1,15.0,69,0.00,CLR,,0.00,WeatherDisplay:10.37,2013-11-10 19:28:00,
2013-11-10 14:33:00,82.0,70.4,30.03,NE,55,6.6,11.5,68,0.00,CLR,,0.00,WeatherDisplay:10.37,2013-11-10 19:33:00,
2013-11-10 14:38:00,81.7,71.0,30.03,North,5,5.8,9.0,70,0.00,CLR,,0.00,WeatherDisplay:10.37,2013-11-10 19:38:00,
2013-11-10 14:43:00,81.4,69.8,30.03,NE,36,10.0,11.5,68,0.00,CLR,,0.00,WeatherDisplay:10.37,2013-11-10 19:43:00,
2013-11-10 14:48:00,81.6,69.1,30.03,NE,37,9.3,15.0,66,0.00,CLR,,0.00,WeatherDisplay:10.37,2013-11-10 19:48:00,
2013-11-10 14:53:00,81.5,69.0,30.03,NE,44,7.0,11.5,66,0.00,CLR,,0.00,WeatherDisplay:10.37,2013-11-10 19:53:00,
2013-11-10 14:58:00,81.6,68.7,30.03,NE,53,5.9,6.9,65,0.00,CLR,,0.00,WeatherDisplay:10.37,2013-11-10 19:58:00,
2013-11-10 15:03:00,81.6,70.4,30.03,NE,38,7.6,10.4,69,0.00,CLR,,0.00,WeatherDisplay:10.37,2013-11-10 20:03:00,
2013-11-10 15:08:00,81.7,71.0,30.03,ENE,64,5.3,9.2,70,0.00,CLR,,0.00,WeatherDisplay:10.37,2013-11-10 20:08:00,
2013-11-10 15:13:00,81.4,70.7,30.03,ENE,76,13.1,13.8,70,0.00,CLR,,0.00,WeatherDisplay:10.37,2013-11-10 20:13:00,
2013-11-10 15:18:00,80.8,70.9,30.03,NNE,32,6.7,11.5,72,0.00,CLR,,0.00,WeatherDisplay:10.37,2013-11-10 20:18:00,
2013-11-10 15:23:00,80.8,71.3,30.03,ENE,60,7.3,10.4,73,0.00,CLR,,0.00,WeatherDisplay:10.37,2013-11-10 20:23:00,
2013-11-10 15:28:00,80.9,71.8,30.03,NE,38,3.0,4.6,74,0.00,CLR,,0.00,WeatherDisplay:10.37,2013-11-10 20:28:00,
2013-11-10 15:33:00,80.9,71.4,30.03,NE,49,4.1,9.2,73,0.00,CLR,,0.00,WeatherDisplay:10.37,2013-11-10 20:33:00,
2013-11-10 15:38:00,81.0,71.5,30.03,NE,55,5.4,8.1,73,0.00,CLR,,0.00,WeatherDisplay:10.37,2013-11-10 20:38:00,
2013-11-10 15:43:00,80.7,71.6,30.03,ENE,67,5.7,8.1,74,0.00,CLR,,0.00,WeatherDisplay:10.37,2013-11-10 20:43:00,
2013-11-10 15:48:00,80.5,71.4,30.03,NE,43,6.5,12.7,74,0.00,CLR,,0.00,WeatherDisplay:10.37,2013-11-10 20:48:00,
2013-11-10 15:53:00,80.4,71.3,30.04,NE,53,6.8,9.2,74,0.00,CLR,,0.00,WeatherDisplay:10.37,2013-11-10 20:53:00,
2013-11-10 15:58:00,80.3,70.9,30.04,NE,41,6.7,9.2,73,0.00,CLR,,0.00,WeatherDisplay:10.37,2013-11-10 20:58:00,
2013-11-10 16:03:00,80.2,70.8,30.04,North,355,8.7,11.5,73,0.00,CLR,,0.00,WeatherDisplay:10.37,2013-11-10 21:03:00,
2013-11-10 16:08:00,80.1,71.1,30.05,NE,55,5.5,8.1,74,0.00,CLR,,0.00,WeatherDisplay:10.37,2013-11-10 21:08:00,
2013-11-10 16:13:00,80.0,71.4,30.05,ENE,63,8.3,11.5,75,0.00,CLR,,0.00,WeatherDisplay:10.37,2013-11-10 21:13:00,
2013-11-10 16:18:00,79.9,71.3,30.05,NNE,30,3.8,8.1,75,0.00,CLR,,0.00,WeatherDisplay:10.37,2013-11-10 21:18:00,
2013-11-10 16:23:00,79.8,71.6,30.05,ENE,59,5.3,5.3,76,0.00,CLR,,0.00,WeatherDisplay:10.37,2013-11-10 21:23:00,
2013-11-10 16:28:00,79.7,71.1,30.04,NE,44,3.2,4.6,75,0.00,CLR,,0.00,WeatherDisplay:10.37,2013-11-10 21:28:00,
2013-11-10 16:33:00,79.6,71.0,30.04,ENE,61,5.3,6.9,75,0.00,CLR,,0.00,WeatherDisplay:10.37,2013-11-10 21:33:00,
2013-11-10 16:38:00,79.6,71.0,30.04,ENE,69,6.3,8.1,75,0.00,CLR,,0.00,WeatherDisplay:10.37,2013-11-10 21:38:00,
2013-11-10 16:43:00,79.5,70.9,30.04,NNE,30,6.2,13.8,75,0.00,CLR,,0.00,WeatherDisplay:10.37,2013-11-10 21:43:00,
2013-11-10 16:48:00,79.5,70.9,30.04,NE,40,4.1,8.1,75,0.00,CLR,,0.00,WeatherDisplay:10.37,2013-11-10 21:48:00,
2013-11-10 16:53:00,79.6,71.4,30.04,East,90,6.0,9.2,76,0.00,CLR,,0.00,WeatherDisplay:10.37,2013-11-10 21:53:00,
2013-11-10 16:58:00,79.4,71.2,30.04,ENE,71,7.6,13.8,76,0.00,CLR,,0.00,WeatherDisplay:10.37,2013-11-10 21:58:00,
2013-11-10 17:03:00,79.3,70.7,30.04,NNE,25,6.8,11.5,75,0.00,CLR,,0.00,WeatherDisplay:10.37,2013-11-10 22:03:00,
2013-11-10 17:08:00,79.1,70.9,30.04,NE,52,4.9,5.8,76,0.00,CLR,,0.00,WeatherDisplay:10.37,2013-11-10 22:08:00,
2013-11-10 17:13:00,79.0,70.8,30.04,NE,42,7.0,11.5,76,0.00,CLR,,0.00,WeatherDisplay:10.37,2013-11-10 22:13:00,
2013-11-10 17:18:00,78.9,70.7,30.04,NE,53,4.5,8.1,76,0.00,CLR,,0.00,WeatherDisplay:10.37,2013-11-10 22:18:00,
2013-11-10 17:23:00,78.8,70.6,30.04,ENE,67,5.0,8.1,76,0.00,CLR,,0.00,WeatherDisplay:10.37,2013-11-10 22:23:00,
2013-11-10 17:28:00,78.7,70.5,30.04,NE,55,5.4,9.2,76,0.00,CLR,,0.00,WeatherDisplay:10.37,2013-11-10 22:28:00,
2013-11-10 17:34:00,78.7,70.5,30.04,NE,36,5.5,8.1,76,0.00,CLR,,0.00,WeatherDisplay:10.37,2013-11-10 22:34:00,
2013-11-10 17:39:00,78.5,70.3,30.05,NNE,24,4.3,8.1,76,0.00,CLR,,0.00,WeatherDisplay:10.37,2013-11-10 22:39:00,
2013-11-10 17:44:00,78.5,70.7,30.05,NE,40,3.0,6.0,77,0.00,CLR,,0.00,WeatherDisplay:10.37,2013-11-10 22:44:00,
2013-11-10 17:49:00,78.3,70.5,30.05,NE,41,3.3,6.9,77,0.00,CLR,,0.00,WeatherDisplay:10.37,2013-11-10 22:49:00,
2013-11-10 17:54:00,78.3,70.5,30.05,NE,46,2.8,5.8,77,0.00,CLR,,0.00,WeatherDisplay:10.37,2013-11-10 22:54:00,
2013-11-10 17:59:00,78.2,70.4,30.05,NE,44,4.8,8.1,77,0.00,CLR,,0.00,WeatherDisplay:10.37,2013-11-10 22:59:00,
2013-11-10 18:04:00,78.2,70.4,30.05,NE,48,4.9,5.8,77,0.00,CLR,,0.00,WeatherDisplay:10.37,2013-11-10 23:04:00,
2013-11-10 18:09:00,78.2,70.4,30.05,NE,50,4.6,6.9,77,0.00,CLR,,0.00,WeatherDisplay:10.37,2013-11-10 23:09:00,
2013-11-10 18:14:00,78.1,70.3,30.04,NNE,28,2.6,6.9,77,0.00,CLR,,0.00,WeatherDisplay:10.37,2013-11-10 23:14:00,
2013-11-10 18:19:00,78.0,70.2,30.04,NE,42,3.5,4.6,77,0.00,CLR,,0.00,WeatherDisplay:10.37,2013-11-10 23:19:00,
2013-11-10 18:24:00,78.0,70.2,30.04,NE,51,5.3,6.9,77,0.00,CLR,,0.00,WeatherDisplay:10.37,2013-11-10 23:24:00,
2013-11-10 18:29:00,77.9,70.1,30.04,NNE,14,4.6,4.6,77,0.00,CLR,,0.00,WeatherDisplay:10.37,2013-11-10 23:29:00,
2013-11-10 18:34:00,77.9,69.7,30.04,ENE,62,6.0,6.0,76,0.00,CLR,,0.00,WeatherDisplay:10.37,2013-11-10 23:34:00,
2013-11-10 18:39:00,78.0,69.8,30.04,NE,50,4.1,5.8,76,0.00,CLR,,0.00,WeatherDisplay:10.37,2013-11-10 23:39:00,
2013-11-10 18:44:00,77.9,69.7,30.04,NE,44,1.6,3.5,76,0.00,CLR,,0.00,WeatherDisplay:10.37,2013-11-10 23:44:00,
2013-11-10 18:49:00,77.8,70.0,30.05,NNE,28,2.5,3.5,77,0.00,CLR,,0.00,WeatherDisplay:10.37,2013-11-10 23:49:00,
2013-11-10 18:54:00,77.8,70.0,30.05,NE,41,1.9,3.5,77,0.00,CLR,,0.00,WeatherDisplay:10.37,2013-11-10 23:54:00,
2013-11-10 18:59:00,77.7,69.9,30.05,NE,35,1.9,5.8,77,0.00,CLR,,0.00,WeatherDisplay:10.37,2013-11-10 23:59:00,
2013-11-10 19:04:00,77.7,69.9,30.05,NNE,32,3.5,5.8,77,0.00,CLR,,0.00,WeatherDisplay:10.37,2013-11-11 00:04:00,
2013-11-10 19:09:00,77.6,69.8,30.06,NNE,32,1.4,3.5,77,0.00,CLR,,0.00,WeatherDisplay:10.37,2013-11-11 00:09:00,
2013-11-10 19:14:00,77.5,70.1,30.06,NNE,32,2.1,3.5,78,0.00,CLR,,0.00,WeatherDisplay:10.37,2013-11-11 00:14:00,
2013-11-10 19:19:00,77.5,70.1,30.06,NNE,32,2.1,4.6,78,0.00,CLR,,0.00,WeatherDisplay:10.37,2013-11-11 00:19:00,
2013-11-10 19:24:00,77.4,70.0,30.05,NNE,32,1.6,3.5,78,0.00,CLR,,0.00,WeatherDisplay:10.37,2013-11-11 00:24:00,
2013-11-10 19:29:00,77.3,69.9,30.06,NNE,32,0.6,1.2,78,0.00,CLR,,0.00,WeatherDisplay:10.37,2013-11-11 00:29:00,
2013-11-10 19:34:00,77.2,69.8,30.06,NNE,32,0.5,2.3,78,0.00,CLR,,0.00,WeatherDisplay:10.37,2013-11-11 00:34:00,
2013-11-10 19:39:00,77.1,70.1,30.06,NNE,32,0.2,1.2,79,0.00,CLR,,0.00,WeatherDisplay:10.37,2013-11-11 00:39:00,
2013-11-10 19:44:00,76.9,70.3,30.06,NNE,32,0.0,0.0,80,0.00,CLR,,0.00,WeatherDisplay:10.37,2013-11-11 00:44:00,
2013-11-10 19:49:00,76.8,70.2,30.06,NNE,32,2.2,3.5,80,0.00,CLR,,0.00,WeatherDisplay:10.37,2013-11-11 00:49:00,
2013-11-10 19:54:00,76.7,70.1,30.06,NNE,32,1.2,3.5,80,0.00,CLR,,0.00,WeatherDisplay:10.37,2013-11-11 00:54:00,
2013-11-10 19:59:00,76.8,70.2,30.06,NNE,32,1.1,2.3,80,0.00,CLR,,0.00,WeatherDisplay:10.37,2013-11-11 00:59:00,
2013-11-10 20:04:00,76.8,69.8,30.06,NE,50,2.5,3.5,79,0.00,CLR,,0.00,WeatherDisplay:10.37,2013-11-11 01:04:00,
2013-11-10 20:09:00,76.9,69.9,30.06,NE,44,0.9,2.3,79,0.00,CLR,,0.00,WeatherDisplay:10.37,2013-11-11 01:09:00,
2013-11-10 20:14:00,76.9,69.9,30.06,NE,42,0.5,1.2,79,0.00,CLR,,0.00,WeatherDisplay:10.37,2013-11-11 01:14:00,
2013-11-10 20:19:00,76.8,69.8,30.06,NE,42,0.9,2.3,79,0.00,CLR,,0.00,WeatherDisplay:10.37,2013-11-11 01:19:00,
2013-11-10 20:24:00,76.7,69.7,30.07,NE,42,0.1,1.2,79,0.00,CLR,,0.00,WeatherDisplay:10.37,2013-11-11 01:24:00,
2013-11-10 20:29:00,76.6,69.6,30.07,NE,42,1.7,2.3,79,0.00,CLR,,0.00,WeatherDisplay:10.37,2013-11-11 01:29:00,
2013-11-10 20:34:00,76.6,69.6,30.07,NE,42,2.1,4.6,79,0.00,CLR,,0.00,WeatherDisplay:10.37,2013-11-11 01:34:00,
2013-11-10 20:39:00,76.5,69.5,30.07,NE,42,2.3,3.5,79,0.00,CLR,,0.00,WeatherDisplay:10.37,2013-11-11 01:39:00,
2013-11-10 20:44:00,76.4,69.4,30.07,NE,42,0.5,2.3,79,0.00,CLR,,0.00,WeatherDisplay:10.37,2013-11-11 01:44:00,
2013-11-10 20:49:00,76.4,69.4,30.07,NE,42,1.1,3.5,79,0.00,CLR,,0.00,WeatherDisplay:10.37,2013-11-11 01:49:00,
2013-11-10 20:54:00,76.5,69.5,30.07,NE,40,0.1,1.2,79,0.00,CLR,,0.00,WeatherDisplay:10.37,2013-11-11 01:54:00,
2013-11-10 20:59:00,76.5,69.9,30.07,NE,40,2.0,2.3,80,0.00,CLR,,0.00,WeatherDisplay:10.37,2013-11-11 01:59:00,
2013-11-10 21:04:00,76.5,69.5,30.07,NE,40,1.3,3.5,79,0.00,CLR,,0.00,WeatherDisplay:10.37,2013-11-11 02:04:00,
2013-11-10 21:09:00,76.4,69.4,30.08,NE,40,0.2,3.5,79,0.00,CLR,,0.00,WeatherDisplay:10.37,2013-11-11 02:09:00,
2013-11-10 21:14:00,76.3,70.0,30.07,NE,40,0.1,0.0,81,0.00,CLR,,0.00,WeatherDisplay:10.37,2013-11-11 02:14:00,
2013-11-10 21:19:00,76.0,69.4,30.07,NE,40,0.0,0.0,80,0.00,CLR,,0.00,WeatherDisplay:10.37,2013-11-11 02:19:00,
2013-11-10 21:24:00,75.9,69.3,30.07,NE,40,0.0,0.0,80,0.00,CLR,,0.00,WeatherDisplay:10.37,2013-11-11 02:24:00,
2013-11-10 21:29:00,75.8,70.3,30.08,NE,40,0.0,0.0,83,0.00,CLR,,0.00,WeatherDisplay:10.37,2013-11-11 02:29:00,
2013-11-10 21:34:00,75.5,70.3,30.08,NE,40,0.0,0.0,84,0.00,CLR,,0.00,WeatherDisplay:10.37,2013-11-11 02:34:00,
2013-11-10 21:39:00,75.3,70.1,30.08,NE,40,0.0,0.0,84,0.00,CLR,,0.00,WeatherDisplay:10.37,2013-11-11 02:39:00,
2013-11-10 21:44:00,75.1,70.3,30.08,NE,40,0.0,0.0,85,0.00,CLR,,0.00,WeatherDisplay:10.37,2013-11-11 02:44:00,
2013-11-10 21:49:00,74.7,70.2,30.08,NE,40,0.0,0.0,86,0.00,CLR,,0.00,WeatherDisplay:10.37,2013-11-11 02:49:00,
2013-11-10 21:54:00,74.5,70.4,30.08,NE,40,0.0,0.0,87,0.00,CLR,,0.00,WeatherDisplay:10.37,2013-11-11 02:54:00,
2013-11-10 21:59:00,74.3,70.2,30.07,NE,40,0.0,0.0,87,0.00,CLR,,0.00,WeatherDisplay:10.37,2013-11-11 02:59:00,
2013-11-10 22:04:00,74.1,70.0,30.08,NE,40,0.0,0.0,87,0.00,CLR,,0.00,WeatherDisplay:10.37,2013-11-11 03:04:00,
2013-11-10 22:09:00,73.9,69.8,30.07,NE,40,0.2,0.0,87,0.00,CLR,,0.00,WeatherDisplay:10.37,2013-11-11 03:09:00,
2013-11-10 22:14:00,73.8,69.7,30.08,NE,40,0.0,1.2,87,0.00,CLR,,0.00,WeatherDisplay:10.37,2013-11-11 03:14:00,
2013-11-10 22:19:00,73.9,70.1,30.07,NE,40,0.0,0.0,88,0.00,CLR,,0.00,WeatherDisplay:10.37,2013-11-11 03:19:00,
2013-11-10 22:24:00,73.8,69.7,30.07,NE,40,0.1,0.0,87,0.00,CLR,,0.00,WeatherDisplay:10.37,2013-11-11 03:24:00,
2013-11-10 22:29:00,73.9,70.1,30.07,NE,40,0.1,0.0,88,0.00,CLR,,0.00,WeatherDisplay:10.37,2013-11-11 03:29:00,
2013-11-10 22:34:00,73.9,70.1,30.07,NE,40,0.0,0.0,88,0.00,CLR,,0.00,WeatherDisplay:10.37,2013-11-11 03:34:00,
2013-11-10 22:39:00,73.7,69.6,30.07,NE,40,0.0,0.0,87,0.00,CLR,,0.00,WeatherDisplay:10.37,2013-11-11 03:39:00,
2013-11-10 22:44:00,73.7,70.3,30.07,NE,40,0.0,0.0,89,0.00,CLR,,0.00,WeatherDisplay:10.37,2013-11-11 03:44:00,
2013-11-10 22:50:00,73.6,70.2,30.07,NE,40,0.0,0.0,89,0.00,CLR,,0.00,WeatherDisplay:10.37,2013-11-11 03:50:00,
2013-11-10 22:55:00,73.5,70.1,30.07,NE,40,0.0,0.0,89,0.00,CLR,,0.00,WeatherDisplay:10.37,2013-11-11 03:55:00,
2013-11-10 23:00:00,73.2,69.8,30.07,NE,40,0.0,1.2,89,0.00,CLR,,0.00,WeatherDisplay:10.37,2013-11-11 04:00:00,
2013-11-10 23:05:00,73.1,69.7,30.07,NE,40,0.0,0.0,89,0.00,CLR,,0.00,WeatherDisplay:10.37,2013-11-11 04:05:00,
2013-11-10 23:10:00,72.9,69.5,30.07,NE,40,0.0,0.0,89,0.00,CLR,,0.00,WeatherDisplay:10.37,2013-11-11 04:10:00,
2013-11-10 23:15:00,72.6,69.2,30.07,NE,40,0.0,0.0,89,0.00,CLR,,0.00,WeatherDisplay:10.37,2013-11-11 04:15:00,
2013-11-10 23:20:00,72.4,69.0,30.07,NE,40,0.0,0.0,89,0.00,CLR,,0.00,WeatherDisplay:10.37,2013-11-11 04:20:00,
2013-11-10 23:25:00,72.4,69.3,30.07,NE,40,0.0,0.0,90,0.00,CLR,,0.00,WeatherDisplay:10.37,2013-11-11 04:25:00,
2013-11-10 23:30:00,72.4,69.6,30.07,NE,40,0.0,0.0,91,0.00,CLR,,0.00,WeatherDisplay:10.37,2013-11-11 04:30:00,
2013-11-10 23:35:00,72.4,69.6,30.07,NE,40,0.0,0.0,91,0.00,CLR,,0.00,WeatherDisplay:10.37,2013-11-11 04:35:00,
2013-11-10 23:40:00,72.2,69.1,30.07,NE,40,0.0,0.0,90,0.00,CLR,,0.00,WeatherDisplay:10.37,2013-11-11 04:40:00,
2013-11-10 23:45:00,72.0,68.9,30.07,NE,40,0.0,0.0,90,0.00,CLR,,0.00,WeatherDisplay:10.37,2013-11-11 04:45:00,
2013-11-10 23:50:00,71.8,68.7,30.07,NE,40,0.0,0.0,90,0.00,CLR,,0.00,WeatherDisplay:10.37,2013-11-11 04:50:00,
2013-11-10 23:55:00,71.8,69.0,30.07,NE,40,0.0,0.0,91,0.00,CLR,,0.00,WeatherDisplay:10.37,2013-11-11 04:55:00,